createdAt,value
2023-04-25T00:00:16.331Z,28.65
2023-04-25T00:02:48.523Z,29.13
2023-04-25T00:05:19.703Z,38.25
2023-04-25T00:07:50.298Z,35.92
2023-04-25T00:10:21.128Z,35.78
2023-04-25T00:12:51.391Z,33.47
2023-04-25T00:15:21.880Z,31.40
2023-04-25T00:17:54.895Z,30.75
2023-04-25T00:20:27.109Z,25.45
2023-04-25T00:22:57.465Z,27.35
2023-04-25T00:25:28.010Z,38.00
2023-04-25T00:27:59.127Z,33.78
2023-04-25T00:30:29.325Z,35.70
2023-04-25T00:32:59.903Z,35.95
2023-04-25T00:35:29.871Z,49.00
2023-04-25T00:38:00.114Z,42.83
2023-04-25T00:40:30.920Z,32.70
2023-04-25T00:43:02.588Z,35.85
2023-04-25T00:45:33.816Z,34.28
2023-04-25T00:48:05.042Z,34.47
2023-04-25T00:50:39.039Z,36.20
2023-04-25T00:53:09.861Z,31.35
2023-04-25T00:55:40.979Z,28.98
2023-04-25T00:58:11.850Z,31.30
2023-04-25T01:00:43.415Z,36.20
2023-04-25T01:03:15.139Z,37.45
2023-04-25T01:05:46.860Z,28.30
2023-04-25T01:08:17.457Z,30.10
2023-04-25T01:10:47.660Z,35.80
2023-04-25T01:13:18.578Z,46.30
2023-04-25T01:15:49.899Z,31.98
2023-04-25T01:18:22.587Z,26.63
2023-04-25T01:20:54.448Z,36.83
2023-04-25T01:23:25.450Z,30.05
2023-04-25T01:25:58.743Z,33.78
2023-04-25T01:28:29.913Z,36.70
2023-04-25T01:31:00.238Z,43.70
2023-04-25T01:33:30.463Z,31.40
2023-04-25T01:36:00.925Z,33.60
2023-04-25T01:38:32.189Z,34.17
2023-04-25T01:41:03.964Z,29.60
2023-04-25T01:43:34.965Z,36.45
2023-04-25T01:46:04.999Z,29.27
2023-04-25T01:48:35.724Z,31.65
2023-04-25T01:51:06.011Z,33.50
2023-04-25T01:53:36.716Z,30.10
2023-04-25T01:56:08.024Z,29.67
2023-04-25T01:58:39.483Z,30.00
2023-04-25T02:01:34.100Z,28.00
2023-04-25T02:04:19.031Z,26.48
2023-04-25T02:06:49.857Z,25.40
2023-04-25T02:09:20.517Z,28.83
2023-04-25T02:11:58.669Z,29.00
2023-04-25T02:14:51.703Z,30.08
2023-04-25T02:17:42.547Z,35.22
2023-04-25T02:20:14.656Z,48.30
2023-04-25T02:22:44.989Z,28.42
2023-04-25T02:25:18.278Z,32.50
2023-04-25T02:27:50.116Z,29.73
2023-04-25T02:30:22.671Z,32.08
2023-04-25T02:32:52.993Z,59.78
2023-04-25T02:35:24.017Z,31.73
2023-04-25T02:37:57.263Z,27.90
2023-04-25T02:40:28.724Z,34.75
2023-04-25T02:42:58.999Z,27.15
2023-04-25T02:45:32.530Z,35.60
2023-04-25T02:48:03.507Z,28.33
2023-04-25T02:50:36.030Z,25.52
2023-04-25T02:53:06.756Z,32.42
2023-04-25T02:55:44.073Z,25.17
2023-04-25T02:58:15.178Z,28.63
2023-04-25T03:00:54.646Z,27.58
2023-04-25T03:03:28.643Z,28.35
2023-04-25T03:05:59.005Z,29.20
2023-04-25T03:08:36.633Z,31.67
2023-04-25T03:11:09.359Z,28.60
2023-04-25T03:13:40.610Z,32.05
2023-04-25T03:16:12.427Z,31.38
2023-04-25T03:18:43.238Z,28.45
2023-04-25T03:21:14.529Z,25.33
2023-04-25T03:23:44.554Z,44.03
2023-04-25T03:26:16.459Z,35.65
2023-04-25T03:28:48.039Z,38.92
2023-04-25T03:31:18.528Z,46.47
2023-04-25T03:33:49.292Z,41.30
2023-04-25T03:36:22.214Z,44.00
2023-04-25T03:38:52.847Z,43.55
2023-04-25T03:41:25.323Z,46.38
2023-04-25T03:43:59.077Z,50.15
2023-04-25T03:46:31.444Z,41.38
2023-04-25T03:49:04.955Z,50.45
2023-04-25T03:51:55.034Z,44.65
2023-04-25T03:54:26.520Z,50.65
2023-04-25T03:57:01.141Z,50.83
2023-04-25T03:59:35.223Z,43.60
2023-04-25T04:02:06.896Z,51.47
2023-04-25T04:04:40.049Z,40.00
2023-04-25T04:07:13.550Z,47.33
2023-04-25T04:09:49.853Z,46.60
2023-04-25T04:12:27.978Z,40.85
2023-04-25T04:14:58.889Z,42.65
2023-04-25T04:17:30.435Z,38.63
2023-04-25T04:20:01.874Z,38.25
2023-04-25T04:22:35.065Z,42.63
2023-04-25T04:25:10.600Z,44.03
2023-04-25T04:28:09.310Z,52.00
2023-04-25T04:30:54.588Z,51.25
2023-04-25T04:33:25.636Z,47.03
2023-04-25T04:36:09.854Z,40.25
2023-04-25T04:38:43.319Z,46.83
2023-04-25T04:41:23.144Z,36.33
2023-04-25T04:44:13.612Z,40.92
2023-04-25T04:47:08.858Z,42.00
2023-04-25T04:50:18.340Z,47.38
2023-04-25T04:53:24.153Z,38.17
2023-04-25T04:56:27.604Z,46.53
2023-04-25T04:59:09.818Z,45.45
2023-04-25T05:02:12.564Z,41.22
2023-04-25T05:05:12.160Z,39.70
2023-04-25T05:08:00.388Z,41.22
2023-04-25T05:10:45.039Z,41.13
2023-04-25T05:13:30.634Z,57.20
2023-04-25T05:16:24.187Z,44.92
2023-04-25T05:19:21.157Z,34.45
2023-04-25T05:21:58.648Z,31.45
2023-04-25T05:24:41.205Z,31.98
2023-04-25T05:27:34.410Z,34.63
2023-04-25T05:30:05.374Z,37.03
2023-04-25T05:32:50.439Z,32.88
2023-04-25T05:35:21.076Z,25.05
2023-04-25T05:37:52.752Z,26.63
2023-04-25T05:40:31.732Z,32.17
2023-04-25T05:43:20.171Z,27.50
2023-04-25T05:46:12.738Z,30.67
2023-04-25T05:48:58.141Z,27.75
2023-04-25T05:51:47.721Z,24.85
2023-04-25T05:54:21.310Z,25.58
2023-04-25T05:56:52.183Z,31.85
2023-04-25T05:59:24.957Z,34.60
2023-04-25T06:01:55.322Z,35.30
2023-04-25T06:04:27.963Z,23.15
2023-04-25T06:06:59.711Z,28.70
2023-04-25T06:09:30.225Z,31.30
2023-04-25T06:12:01.162Z,30.58
2023-04-25T06:14:32.858Z,27.80
2023-04-25T06:17:08.427Z,29.38
2023-04-25T06:19:38.683Z,34.05
2023-04-25T06:22:10.149Z,32.83
2023-04-25T06:24:43.740Z,28.77
2023-04-25T06:27:16.452Z,28.30
2023-04-25T06:29:48.201Z,32.28
2023-04-25T06:32:20.225Z,20.33
2023-04-25T06:34:50.753Z,22.85
2023-04-25T06:37:21.226Z,37.03
2023-04-25T06:39:52.219Z,26.02
2023-04-25T06:42:22.199Z,24.08
2023-04-25T06:45:02.426Z,27.40
2023-04-25T06:47:34.576Z,20.98
2023-04-25T06:50:05.758Z,33.80
2023-04-25T06:52:37.475Z,24.40
2023-04-25T06:55:13.919Z,32.55
2023-04-25T06:58:18.947Z,23.90
2023-04-25T07:01:07.806Z,22.33
2023-04-25T07:03:40.248Z,24.75
2023-04-25T07:06:17.352Z,20.20
2023-04-25T07:08:48.267Z,24.85
2023-04-25T07:11:18.188Z,21.20
2023-04-25T07:13:48.985Z,23.02
2023-04-25T07:16:19.805Z,17.80
2023-04-25T07:18:50.641Z,14.07
2023-04-25T07:21:23.650Z,19.65
2023-04-25T07:23:54.749Z,20.25
2023-04-25T07:26:30.794Z,32.80
2023-04-25T07:29:19.344Z,22.90
2023-04-25T07:31:50.210Z,26.52
2023-04-25T07:34:20.803Z,19.38
2023-04-25T07:36:51.169Z,21.10
2023-04-25T07:39:22.069Z,20.75
2023-04-25T07:41:55.055Z,18.65
2023-04-25T07:44:32.591Z,23.92
2023-04-25T07:47:05.803Z,21.05
2023-04-25T07:49:40.552Z,17.60
2023-04-25T07:52:11.487Z,25.52
2023-04-25T07:54:50.211Z,22.75
2023-04-25T07:57:26.436Z,19.73
2023-04-25T07:59:58.918Z,31.45
2023-04-25T08:02:30.628Z,14.23
2023-04-25T08:05:02.513Z,16.60
2023-04-25T08:07:33.783Z,40.83
2023-04-25T08:10:08.866Z,19.42
2023-04-25T08:12:39.291Z,15.05
2023-04-25T08:15:11.490Z,16.83
2023-04-25T08:17:43.785Z,12.02
2023-04-25T08:20:14.948Z,17.65
2023-04-25T08:22:46.426Z,16.60
2023-04-25T08:25:34.807Z,15.90
2023-04-25T08:28:06.388Z,16.23
2023-04-25T08:30:38.327Z,19.58
2023-04-25T08:33:10.727Z,12.35
2023-04-25T08:36:10.827Z,20.13
2023-04-25T08:38:44.365Z,20.42
2023-04-25T08:41:16.314Z,16.95
2023-04-25T08:43:47.912Z,18.25
2023-04-25T08:46:20.697Z,13.55
2023-04-25T08:49:17.158Z,21.63
2023-04-25T08:51:55.316Z,22.08
2023-04-25T08:54:35.367Z,12.90
2023-04-25T08:57:09.921Z,17.15
2023-04-25T08:59:42.884Z,18.50
2023-04-25T09:02:19.894Z,15.20
2023-04-25T09:05:02.166Z,12.25
2023-04-25T09:07:33.824Z,11.63
2023-04-25T09:10:05.680Z,16.45
2023-04-25T09:12:42.416Z,28.95
2023-04-25T09:15:20.593Z,24.90
2023-04-25T09:18:01.670Z,11.57
2023-04-25T09:21:00.737Z,12.70
2023-04-25T09:23:43.159Z,11.10
2023-04-25T09:26:16.795Z,14.07
2023-04-25T09:28:51.382Z,11.68
2023-04-25T09:31:26.464Z,15.93
2023-04-25T09:34:06.735Z,20.42
2023-04-25T09:36:47.419Z,15.48
2023-04-25T09:39:35.865Z,22.20
2023-04-25T09:42:14.890Z,13.90
2023-04-25T09:44:46.528Z,18.90
2023-04-25T09:47:19.982Z,12.80
2023-04-25T09:49:52.629Z,11.55
2023-04-25T09:52:26.084Z,18.58
2023-04-25T09:55:08.268Z,18.70
2023-04-25T09:57:42.471Z,22.55
2023-04-25T10:00:14.410Z,12.55
2023-04-25T10:02:46.064Z,16.27
2023-04-25T10:05:33.906Z,11.57
2023-04-25T10:08:06.414Z,11.75
2023-04-25T10:10:38.651Z,11.50
2023-04-25T10:13:40.747Z,15.35
2023-04-25T10:16:21.734Z,11.25
2023-04-25T10:18:58.462Z,12.10
2023-04-25T10:21:30.718Z,18.88
2023-04-25T10:24:05.232Z,14.57
2023-04-25T10:26:35.939Z,17.48
2023-04-25T10:29:06.463Z,14.52
2023-04-25T10:31:47.194Z,15.43
2023-04-25T10:34:19.372Z,17.13
2023-04-25T10:36:56.947Z,15.38
2023-04-25T10:39:29.492Z,16.85
2023-04-25T10:42:02.709Z,15.55
2023-04-25T10:44:34.229Z,17.38
2023-04-25T10:47:09.339Z,17.73
2023-04-25T10:49:44.027Z,14.60
2023-04-25T10:52:27.012Z,18.33
2023-04-25T10:54:59.002Z,14.15
2023-04-25T10:57:39.532Z,17.40
2023-04-25T11:00:34.167Z,11.38
2023-04-25T11:03:19.102Z,14.00
2023-04-25T11:05:58.159Z,11.38
2023-04-25T11:08:52.968Z,10.68
2023-04-25T11:11:24.281Z,17.48
2023-04-25T11:13:57.520Z,17.92
2023-04-25T11:16:35.971Z,14.00
2023-04-25T11:19:06.933Z,17.08
2023-04-25T11:21:37.227Z,22.45
2023-04-25T11:24:08.586Z,19.25
2023-04-25T11:26:39.765Z,22.67
2023-04-25T11:29:11.025Z,18.92
2023-04-25T11:31:46.179Z,17.38
2023-04-25T11:34:21.991Z,16.65
2023-04-25T11:36:53.002Z,18.75
2023-04-25T11:39:24.051Z,16.33
2023-04-25T11:41:55.544Z,14.73
2023-04-25T11:44:26.564Z,18.55
2023-04-25T11:46:58.190Z,17.70
2023-04-25T11:49:34.080Z,17.67
2023-04-25T11:52:05.035Z,15.20
2023-04-25T11:54:38.015Z,17.35
2023-04-25T11:57:08.901Z,17.83
2023-04-25T11:59:40.528Z,21.50
2023-04-25T12:02:11.078Z,17.50
2023-04-25T12:04:43.893Z,23.02
2023-04-25T12:07:15.828Z,19.83
2023-04-25T12:09:46.395Z,21.65
2023-04-25T12:12:17.614Z,20.38
2023-04-25T12:15:00.130Z,21.80
2023-04-25T12:17:33.828Z,25.48
2023-04-25T12:20:08.513Z,17.98
2023-04-25T12:22:39.581Z,22.75
2023-04-25T12:25:10.334Z,25.27
2023-04-25T12:27:43.150Z,22.67
2023-04-25T12:30:14.127Z,21.85
2023-04-25T12:32:44.652Z,20.38
2023-04-25T12:35:15.346Z,16.98
2023-04-25T12:37:46.534Z,18.83
2023-04-25T12:40:16.833Z,23.83
2023-04-25T12:42:47.585Z,23.20
2023-04-25T12:45:19.032Z,16.13
2023-04-25T12:47:49.119Z,17.95
2023-04-25T12:50:19.584Z,17.83
2023-04-25T12:52:50.113Z,19.65
2023-04-25T12:55:20.556Z,20.48
2023-04-25T12:57:51.049Z,19.48
2023-04-25T13:00:22.116Z,18.42
2023-04-25T13:02:53.131Z,16.58
2023-04-25T13:05:23.591Z,19.63
2023-04-25T13:07:54.891Z,13.93
2023-04-25T13:10:25.859Z,16.73
2023-04-25T13:12:57.128Z,14.48
2023-04-25T13:15:28.140Z,15.27
2023-04-25T13:17:58.681Z,23.05
2023-04-25T13:20:29.079Z,21.42
2023-04-25T13:23:01.017Z,17.40
2023-04-25T13:25:33.074Z,19.85
2023-04-25T13:28:12.315Z,16.30
2023-04-25T13:30:43.180Z,18.25
2023-04-25T13:33:14.445Z,22.55
2023-04-25T13:35:45.535Z,18.77
2023-04-25T13:38:18.309Z,21.48
2023-04-25T13:40:49.150Z,18.80
2023-04-25T13:43:20.656Z,23.27
2023-04-25T13:45:52.104Z,19.08
2023-04-25T13:48:23.092Z,22.33
2023-04-25T13:50:54.559Z,14.27
2023-04-25T13:53:25.050Z,18.13
2023-04-25T13:55:55.634Z,14.88
2023-04-25T13:58:26.185Z,22.38
2023-04-25T14:00:57.604Z,15.80
2023-04-25T14:03:28.295Z,12.70
2023-04-25T14:05:59.137Z,15.60
2023-04-25T14:08:30.855Z,14.85
2023-04-25T14:11:01.179Z,17.75
2023-04-25T14:13:31.712Z,18.35
2023-04-25T14:16:02.200Z,13.88
2023-04-25T14:18:32.203Z,14.43
2023-04-25T14:21:02.137Z,20.33
2023-04-25T14:23:32.136Z,18.27
2023-04-25T14:26:03.166Z,14.70
2023-04-25T14:28:34.157Z,17.73
2023-04-25T14:31:04.709Z,16.67
2023-04-25T14:33:36.105Z,17.45
2023-04-25T14:36:08.231Z,16.40
2023-04-25T14:38:38.259Z,11.60
2023-04-25T14:41:08.972Z,18.88
2023-04-25T14:43:39.687Z,18.13
2023-04-25T14:46:11.843Z,17.25
2023-04-25T14:48:42.272Z,17.98
2023-04-25T14:51:15.047Z,12.10
2023-04-25T14:53:45.694Z,20.58
2023-04-25T14:56:17.097Z,15.32
2023-04-25T14:58:47.748Z,17.20
2023-04-25T15:01:17.823Z,19.92
2023-04-25T15:03:48.894Z,20.70
2023-04-25T15:06:20.247Z,13.77
2023-04-25T15:08:51.239Z,16.45
2023-04-25T15:11:22.623Z,17.73
2023-04-25T15:13:54.270Z,14.60
2023-04-25T15:16:24.560Z,17.08
2023-04-25T15:18:55.226Z,17.17
2023-04-25T15:21:25.971Z,29.02
2023-04-25T15:23:57.935Z,25.73
2023-04-25T15:26:29.297Z,25.17
2023-04-25T15:28:59.952Z,29.40
2023-04-25T15:31:30.754Z,26.08
2023-04-25T15:34:01.275Z,17.25
2023-04-25T15:36:33.502Z,23.02
2023-04-25T15:39:03.689Z,23.38
2023-04-25T15:41:35.352Z,16.98
2023-04-25T15:44:08.988Z,28.65
2023-04-25T15:46:41.273Z,30.88
2023-04-25T15:49:12.821Z,25.42
2023-04-25T15:51:43.437Z,23.92
2023-04-25T15:54:13.790Z,32.90
2023-04-25T15:56:43.771Z,27.50
2023-04-25T15:59:15.680Z,27.23
2023-04-25T16:01:46.338Z,25.27
2023-04-25T16:04:17.145Z,28.15
2023-04-25T16:06:51.618Z,31.25
2023-04-25T16:09:22.720Z,29.15
2023-04-25T16:11:53.755Z,26.60
2023-04-25T16:14:23.788Z,21.55
2023-04-25T16:16:57.457Z,18.55
2023-04-25T16:19:28.739Z,23.85
2023-04-25T16:22:00.290Z,28.67
2023-04-25T16:24:30.820Z,25.02
2023-04-25T16:27:01.344Z,20.65
2023-04-25T16:29:31.769Z,23.85
2023-04-25T16:32:02.580Z,21.98
2023-04-25T16:34:33.281Z,20.83
2023-04-25T16:37:03.601Z,17.33
2023-04-25T16:39:33.840Z,30.27
2023-04-25T16:42:04.830Z,27.25
2023-04-25T16:44:35.954Z,20.65
2023-04-25T16:47:07.155Z,21.42
2023-04-25T16:49:37.332Z,18.67
2023-04-25T16:52:09.876Z,23.80
2023-04-25T16:54:39.806Z,15.55
2023-04-25T16:57:12.376Z,17.67
2023-04-25T16:59:44.092Z,22.00
2023-04-25T17:02:14.968Z,17.08
2023-04-25T17:04:45.086Z,18.80
2023-04-25T17:07:15.573Z,22.38
2023-04-25T17:09:46.620Z,18.67
2023-04-25T17:12:17.198Z,20.00
2023-04-25T17:14:48.001Z,20.13
2023-04-25T17:17:19.871Z,16.90
2023-04-25T17:19:50.971Z,16.10
2023-04-25T17:22:21.309Z,19.70
2023-04-25T17:24:52.875Z,20.23
2023-04-25T17:27:23.609Z,14.48
2023-04-25T17:29:54.645Z,18.98
2023-04-25T17:32:25.458Z,17.92
2023-04-25T17:34:56.611Z,10.00
2023-04-25T17:37:29.565Z,13.88
2023-04-25T17:40:00.165Z,22.23
2023-04-25T17:42:33.408Z,16.77
2023-04-25T17:45:03.819Z,19.15
2023-04-25T17:47:34.596Z,17.70
2023-04-25T17:50:05.862Z,18.67
2023-04-25T17:52:36.318Z,20.30
2023-04-25T17:55:07.820Z,26.50
2023-04-25T17:57:39.892Z,21.60
2023-04-25T18:00:10.880Z,18.20
2023-04-25T18:02:46.899Z,15.70
2023-04-25T18:05:17.797Z,24.02
2023-04-25T18:07:48.140Z,23.63
2023-04-25T18:10:19.860Z,18.70
2023-04-25T18:12:51.795Z,19.52
2023-04-25T18:15:23.139Z,18.58
2023-04-25T18:17:53.506Z,18.50
2023-04-25T18:20:24.871Z,14.23
2023-04-25T18:22:55.385Z,24.95
2023-04-25T18:25:25.852Z,23.80
2023-04-25T18:27:56.128Z,19.50
2023-04-25T18:30:26.607Z,15.85
2023-04-25T18:32:57.940Z,19.30
2023-04-25T18:35:28.873Z,19.60
2023-04-25T18:38:00.794Z,27.50
2023-04-25T18:40:32.678Z,19.70
2023-04-25T18:43:03.644Z,17.55
2023-04-25T18:45:34.390Z,17.77
2023-04-25T18:48:04.986Z,21.00
2023-04-25T18:50:36.408Z,18.35
2023-04-25T18:53:07.171Z,16.48
2023-04-25T18:55:40.873Z,23.60
2023-04-25T18:58:10.887Z,21.45
2023-04-25T19:00:42.684Z,17.90
2023-04-25T19:03:13.045Z,24.98
2023-04-25T19:05:44.226Z,24.77
2023-04-25T19:08:14.699Z,22.70
2023-04-25T19:10:44.940Z,22.00
2023-04-25T19:13:15.293Z,22.05
2023-04-25T19:15:46.180Z,31.13
2023-04-25T19:18:16.875Z,27.67
2023-04-25T19:20:47.639Z,22.73
2023-04-25T19:23:17.931Z,23.33
2023-04-25T19:25:48.093Z,27.55
2023-04-25T19:28:18.480Z,21.25
2023-04-25T19:30:49.033Z,21.67
2023-04-25T19:33:20.371Z,21.20
2023-04-25T19:35:50.455Z,25.23
2023-04-25T19:38:20.733Z,26.73
2023-04-25T19:40:51.502Z,25.13
2023-04-25T19:43:21.714Z,26.13
2023-04-25T19:45:53.027Z,16.88
2023-04-25T19:48:23.507Z,21.70
2023-04-25T19:50:53.497Z,24.92
2023-04-25T19:53:23.979Z,24.20
2023-04-25T19:55:54.453Z,26.63
2023-04-25T19:58:25.020Z,17.75
2023-04-25T20:00:57.216Z,22.65
2023-04-25T20:03:31.098Z,23.67
2023-04-25T20:06:02.474Z,20.60
2023-04-25T20:08:33.141Z,18.17
2023-04-25T20:11:04.768Z,23.65
2023-04-25T20:13:35.421Z,19.90
2023-04-25T20:16:06.001Z,24.15
2023-04-25T20:18:36.529Z,22.00
2023-04-25T20:21:08.639Z,22.17
2023-04-25T20:23:38.958Z,21.27
2023-04-25T20:26:12.999Z,21.73
2023-04-25T20:28:43.298Z,24.13
2023-04-25T20:31:15.862Z,23.10
2023-04-25T20:33:46.688Z,21.52
2023-04-25T20:36:17.462Z,27.30
2023-04-25T20:38:48.049Z,19.27
2023-04-25T20:41:19.546Z,17.70
2023-04-25T20:43:50.994Z,23.58
2023-04-25T20:46:21.644Z,17.35
2023-04-25T20:48:53.737Z,18.92
2023-04-25T20:51:24.242Z,15.43
2023-04-25T20:53:57.348Z,23.40
2023-04-25T20:56:28.482Z,22.85
2023-04-25T20:58:59.567Z,20.35
2023-04-25T21:01:30.164Z,23.75
2023-04-25T21:04:01.910Z,16.60
2023-04-25T21:06:36.494Z,24.83
2023-04-25T21:09:08.333Z,25.88
2023-04-25T21:11:39.587Z,22.95
2023-04-25T21:14:10.588Z,16.25
2023-04-25T21:16:41.949Z,20.73
2023-04-25T21:19:12.284Z,28.15
2023-04-25T21:21:43.092Z,20.33
2023-04-25T21:24:15.466Z,19.55
2023-04-25T21:26:46.358Z,23.55
2023-04-25T21:29:17.532Z,22.15
2023-04-25T21:31:48.048Z,16.23
2023-04-25T21:34:18.109Z,20.25
2023-04-25T21:36:48.136Z,17.52
2023-04-25T21:39:18.586Z,23.45
2023-04-25T21:41:49.526Z,26.42
2023-04-25T21:44:20.050Z,31.30
2023-04-25T21:46:51.135Z,40.72
2023-04-25T21:49:24.540Z,32.20
2023-04-25T21:51:55.796Z,42.67
2023-04-25T21:54:26.127Z,33.13
2023-04-25T21:56:56.638Z,38.15
2023-04-25T21:59:27.540Z,25.63
2023-04-25T22:01:57.655Z,26.23
2023-04-25T22:04:27.977Z,34.00
2023-04-25T22:06:58.632Z,24.88
2023-04-25T22:09:29.144Z,19.38
2023-04-25T22:11:59.784Z,19.13
2023-04-25T22:14:32.827Z,24.30
2023-04-25T22:17:03.649Z,30.73
2023-04-25T22:19:34.649Z,26.88
2023-04-25T22:22:05.148Z,22.70
2023-04-25T22:24:36.075Z,22.75
2023-04-25T22:27:07.187Z,22.08
2023-04-25T22:29:37.786Z,20.65
2023-04-25T22:32:08.879Z,14.30
2023-04-25T22:34:39.066Z,18.98
2023-04-25T22:37:09.642Z,16.90
2023-04-25T22:39:42.839Z,14.27
2023-04-25T22:42:13.168Z,15.20
2023-04-25T22:44:44.282Z,21.35
2023-04-25T22:47:14.680Z,19.42
2023-04-25T22:49:46.542Z,22.42
2023-04-25T22:52:18.194Z,15.40
2023-04-25T22:54:48.590Z,18.10
2023-04-25T22:57:19.315Z,15.77
2023-04-25T22:59:49.897Z,21.70
2023-04-25T23:02:20.837Z,22.92
2023-04-25T23:04:51.684Z,16.23
2023-04-25T23:07:22.415Z,22.80
2023-04-25T23:09:53.222Z,17.05
2023-04-25T23:12:23.899Z,26.50
2023-04-25T23:14:54.704Z,15.07
2023-04-25T23:17:24.677Z,17.02
2023-04-25T23:19:54.650Z,18.63
2023-04-25T23:22:25.955Z,19.20
2023-04-25T23:24:56.211Z,24.70
2023-04-25T23:27:29.710Z,22.48
2023-04-25T23:30:00.721Z,22.02
2023-04-25T23:32:30.646Z,17.10
2023-04-25T23:35:02.062Z,16.10
2023-04-25T23:37:35.219Z,14.88
2023-04-25T23:40:14.319Z,11.05
2023-04-25T23:42:44.939Z,18.75
2023-04-25T23:45:17.458Z,13.07
2023-04-25T23:47:48.267Z,19.60
2023-04-25T23:50:18.710Z,29.83
2023-04-25T23:52:49.744Z,27.50
2023-04-25T23:55:19.730Z,21.83
2023-04-25T23:57:50.270Z,23.02
